createdAt,value
2022-12-18T00:04:52.890Z,77.35
2022-12-18T00:09:54.508Z,77.39
2022-12-18T00:14:56.134Z,77.46
2022-12-18T00:19:57.698Z,78.27
2022-12-18T00:24:59.385Z,78.31
2022-12-18T00:30:01.008Z,77.84
2022-12-18T00:35:02.738Z,77.95
2022-12-18T00:40:04.588Z,77.91
2022-12-18T00:45:12.291Z,78.37
2022-12-18T00:50:14.646Z,78.01
2022-12-18T00:55:17.204Z,78.60
2022-12-18T01:00:19.366Z,78.66
2022-12-18T01:05:21.064Z,78.69
2022-12-18T01:10:22.722Z,78.81
2022-12-18T01:15:24.409Z,78.44
2022-12-18T01:20:26.292Z,79.23
2022-12-18T01:25:27.856Z,78.68
2022-12-18T01:30:29.541Z,79.11
2022-12-18T01:35:31.274Z,78.82
2022-12-18T01:40:32.857Z,79.08
2022-12-18T01:45:34.436Z,79.42
2022-12-18T01:50:40.964Z,79.36
2022-12-18T01:55:56.038Z,80.14
2022-12-18T02:00:57.809Z,79.63
2022-12-18T02:06:02.358Z,79.53
2022-12-18T02:11:13.388Z,79.76
2022-12-18T02:16:17.884Z,79.71
2022-12-18T02:21:42.593Z,79.82
2022-12-18T02:26:52.423Z,80.05
2022-12-18T02:32:00.987Z,79.87
2022-12-18T02:37:05.388Z,79.99
2022-12-18T02:42:09.107Z,79.84
2022-12-18T02:47:15.367Z,80.26
2022-12-18T02:52:17.185Z,80.31
2022-12-18T02:57:30.840Z,80.39
2022-12-18T03:02:39.512Z,80.35
2022-12-18T03:07:45.800Z,80.30
2022-12-18T03:13:02.848Z,80.58
2022-12-18T03:18:11.745Z,80.75
2022-12-18T03:23:16.863Z,80.74
2022-12-18T03:28:23.583Z,80.35
2022-12-18T03:33:35.634Z,80.74
2022-12-18T03:38:37.503Z,80.62
2022-12-18T03:43:53.041Z,80.59
2022-12-18T03:49:06.435Z,80.52
2022-12-18T03:54:09.687Z,80.48
2022-12-18T03:59:17.808Z,80.51
2022-12-18T04:04:20.479Z,81.11
2022-12-18T04:09:22.736Z,80.83
2022-12-18T04:14:25.534Z,80.92
2022-12-18T04:19:30.825Z,81.27
2022-12-18T04:24:33.604Z,81.19
2022-12-18T04:29:44.707Z,80.91
2022-12-18T04:34:46.372Z,81.24
2022-12-18T04:39:48.537Z,80.67
2022-12-18T04:44:57.989Z,81.24
2022-12-18T04:49:59.575Z,80.71
2022-12-18T04:55:01.288Z,80.80
2022-12-18T05:00:03.862Z,80.75
2022-12-18T05:05:06.005Z,80.88
2022-12-18T05:10:08.081Z,81.14
2022-12-18T05:15:09.713Z,80.85
2022-12-18T05:20:11.445Z,80.80
2022-12-18T05:25:13.038Z,80.81
2022-12-18T05:30:15.090Z,81.10
2022-12-18T05:35:17.373Z,81.34
2022-12-18T05:40:19.124Z,81.34
2022-12-18T05:45:21.296Z,80.90
2022-12-18T05:50:22.915Z,81.35
2022-12-18T05:55:24.490Z,81.31
2022-12-18T06:00:26.156Z,81.51
2022-12-18T06:05:27.857Z,81.22
2022-12-18T06:10:29.616Z,80.73
2022-12-18T06:15:31.253Z,80.89
2022-12-18T06:20:33.744Z,80.92
2022-12-18T06:25:37.869Z,81.45
2022-12-18T06:30:39.726Z,81.55
2022-12-18T06:35:41.478Z,80.91
2022-12-18T06:40:43.008Z,81.42
2022-12-18T06:45:44.638Z,81.45
2022-12-18T06:50:46.441Z,81.13
2022-12-18T06:55:48.027Z,81.43
2022-12-18T07:00:49.741Z,81.54
2022-12-18T07:05:51.308Z,81.40
2022-12-18T07:10:56.283Z,80.94
2022-12-18T07:16:15.010Z,81.48
2022-12-18T07:21:20.317Z,81.24
2022-12-18T07:26:22.628Z,81.23
2022-12-18T07:31:24.450Z,81.18
2022-12-18T07:36:26.408Z,81.28
2022-12-18T07:41:28.427Z,81.39
2022-12-18T07:46:30.032Z,81.58
2022-12-18T07:51:31.788Z,81.42
2022-12-18T07:56:33.578Z,81.39
2022-12-18T08:01:35.421Z,81.29
2022-12-18T08:06:37.230Z,81.65
2022-12-18T08:11:38.827Z,81.47
2022-12-18T08:16:40.567Z,81.48
2022-12-18T08:21:42.244Z,81.19
2022-12-18T08:26:55.875Z,81.18
2022-12-18T08:32:05.634Z,81.26
2022-12-18T08:37:07.387Z,81.14
2022-12-18T08:42:27.649Z,81.31
2022-12-18T08:47:29.440Z,80.59
2022-12-18T08:52:32.462Z,80.77
2022-12-18T08:57:34.036Z,80.85
2022-12-18T09:02:35.736Z,80.52
2022-12-18T09:07:37.526Z,80.58
2022-12-18T09:12:39.173Z,82.15
2022-12-18T09:17:42.242Z,82.45
2022-12-18T09:22:44.872Z,80.63
2022-12-18T09:27:49.137Z,80.46
2022-12-18T09:32:51.036Z,80.32
2022-12-18T09:37:52.610Z,79.98
2022-12-18T09:43:00.313Z,79.61
2022-12-18T09:48:02.621Z,79.24
2022-12-18T09:53:07.547Z,79.84
2022-12-18T09:58:28.975Z,79.47
2022-12-18T10:03:30.729Z,79.45
2022-12-18T10:08:35.497Z,79.62
2022-12-18T10:13:57.465Z,79.64
2022-12-18T10:19:05.253Z,80.02
2022-12-18T10:24:13.067Z,79.91
2022-12-18T10:29:16.275Z,79.61
2022-12-18T10:34:18.001Z,79.86
2022-12-18T10:39:23.123Z,79.41
2022-12-18T10:44:25.322Z,79.40
2022-12-18T10:49:28.449Z,79.72
2022-12-18T10:54:31.613Z,79.45
2022-12-18T10:59:50.232Z,78.80
2022-12-18T11:04:52.590Z,79.15
2022-12-18T11:10:03.615Z,79.05
2022-12-18T11:15:05.651Z,78.81
2022-12-18T11:20:22.725Z,78.69
2022-12-18T11:25:33.084Z,79.01
2022-12-18T11:30:36.665Z,78.39
2022-12-18T11:35:38.497Z,78.36
2022-12-18T11:40:42.158Z,78.30
2022-12-18T11:45:52.413Z,77.85
2022-12-18T11:50:58.275Z,78.02
2022-12-18T11:56:04.316Z,78.08
2022-12-18T12:01:13.081Z,78.16
2022-12-18T12:06:17.888Z,78.10
2022-12-18T12:11:19.575Z,78.16
2022-12-18T12:16:24.171Z,78.28
2022-12-18T12:21:29.703Z,78.20
2022-12-18T12:26:39.824Z,78.59
2022-12-18T12:31:56.513Z,78.34
2022-12-18T12:37:16.999Z,78.47
2022-12-18T12:42:53.361Z,78.22
2022-12-18T12:47:55.646Z,78.64
2022-12-18T12:52:58.219Z,78.24
2022-12-18T12:58:24.244Z,79.51
2022-12-18T13:03:46.458Z,78.13
2022-12-18T13:08:53.238Z,78.04
2022-12-18T13:13:56.540Z,78.29
2022-12-18T13:18:59.657Z,78.40
2022-12-18T13:24:23.659Z,78.20
2022-12-18T13:29:43.445Z,78.12
2022-12-18T13:34:45.238Z,78.27
2022-12-18T13:39:46.937Z,77.95
2022-12-18T13:44:49.155Z,77.79
2022-12-18T13:49:51.756Z,77.54
2022-12-18T13:54:54.521Z,77.57
2022-12-18T13:59:57.788Z,77.75
2022-12-18T14:04:59.431Z,77.78
2022-12-18T14:10:18.894Z,77.54
2022-12-18T14:15:27.563Z,77.40
2022-12-18T14:20:31.964Z,77.73
2022-12-18T14:25:34.027Z,77.48
2022-12-18T14:30:37.677Z,77.67
2022-12-18T14:35:40.876Z,77.47
2022-12-18T14:40:43.039Z,78.10
2022-12-18T14:45:46.977Z,78.29
2022-12-18T14:51:03.483Z,78.08
2022-12-18T14:56:14.702Z,78.18
2022-12-18T15:01:38.009Z,78.50
2022-12-18T15:06:42.241Z,77.96
2022-12-18T15:11:43.770Z,78.20
2022-12-18T15:16:50.516Z,77.95
2022-12-18T15:21:52.173Z,78.37
2022-12-18T15:26:53.847Z,78.19
2022-12-18T15:32:00.038Z,77.85
2022-12-18T15:37:01.761Z,78.26
2022-12-18T15:42:22.096Z,78.39
2022-12-18T15:47:23.697Z,78.33
2022-12-18T15:52:27.108Z,78.33
2022-12-18T15:57:28.907Z,78.19
2022-12-18T16:02:30.735Z,78.63
2022-12-18T16:07:32.498Z,78.88
2022-12-18T16:12:34.080Z,78.73
2022-12-18T16:17:35.832Z,78.42
2022-12-18T16:22:37.563Z,78.34
2022-12-18T16:27:39.232Z,78.28
2022-12-18T16:32:40.923Z,78.65
2022-12-18T16:37:43.013Z,78.46
2022-12-18T16:42:45.448Z,78.90
2022-12-18T16:47:47.108Z,78.69
2022-12-18T16:52:48.742Z,78.29
2022-12-18T16:57:50.314Z,78.34
2022-12-18T17:02:52.241Z,78.45
2022-12-18T17:07:54.007Z,78.26
2022-12-18T17:12:56.028Z,78.36
2022-12-18T17:17:57.680Z,78.56
2022-12-18T17:22:59.276Z,78.94
2022-12-18T17:28:02.600Z,79.16
2022-12-18T17:33:04.205Z,79.11
2022-12-18T17:38:05.882Z,78.86
2022-12-18T17:43:08.718Z,78.92
2022-12-18T17:48:10.908Z,79.58
2022-12-18T17:53:13.074Z,79.04
2022-12-18T17:58:14.714Z,79.19
2022-12-18T18:03:16.654Z,79.14
2022-12-18T18:08:18.477Z,78.94
2022-12-18T18:13:43.330Z,79.07
2022-12-18T18:18:47.947Z,78.98
2022-12-18T18:23:49.644Z,79.07
2022-12-18T18:28:54.307Z,79.21
2022-12-18T18:33:56.711Z,79.58
2022-12-18T18:38:58.973Z,78.99
2022-12-18T18:44:00.600Z,79.30
2022-12-18T18:49:02.136Z,78.72
2022-12-18T18:54:03.804Z,79.44
2022-12-18T18:59:05.738Z,79.13
2022-12-18T19:04:07.301Z,79.64
2022-12-18T19:09:08.944Z,79.40
2022-12-18T19:14:13.257Z,79.05
2022-12-18T19:19:17.399Z,79.23
2022-12-18T19:24:20.070Z,79.26
2022-12-18T19:29:24.302Z,79.42
2022-12-18T19:34:26.157Z,79.18
2022-12-18T19:39:27.767Z,79.52
2022-12-18T19:44:29.355Z,79.48
2022-12-18T19:49:35.205Z,79.39
2022-12-18T19:54:37.050Z,79.30
2022-12-18T19:59:39.041Z,79.42
2022-12-18T20:04:41.802Z,79.35
2022-12-18T20:09:43.415Z,79.35
2022-12-18T20:14:45.092Z,79.77
2022-12-18T20:19:46.809Z,79.27
2022-12-18T20:24:50.464Z,79.15
2022-12-18T20:29:52.279Z,79.78
2022-12-18T20:34:53.864Z,79.56
2022-12-18T20:39:56.274Z,79.85
2022-12-18T20:44:58.086Z,79.57
2022-12-18T20:50:00.788Z,79.96
2022-12-18T20:55:02.372Z,79.57
2022-12-18T21:00:04.265Z,80.08
2022-12-18T21:05:05.975Z,79.95
2022-12-18T21:10:07.751Z,79.98
2022-12-18T21:15:09.926Z,79.86
2022-12-18T21:20:17.617Z,79.99
2022-12-18T21:25:19.905Z,79.79
2022-12-18T21:30:21.499Z,79.54
2022-12-18T21:35:23.605Z,79.82
2022-12-18T21:40:27.563Z,79.47
2022-12-18T21:45:29.370Z,79.57
2022-12-18T21:50:30.929Z,79.30
2022-12-18T21:55:32.575Z,79.16
2022-12-18T22:00:34.193Z,79.20
2022-12-18T22:05:35.785Z,78.62
2022-12-18T22:10:37.784Z,79.63
2022-12-18T22:15:39.477Z,79.64
2022-12-18T22:20:41.601Z,79.10
2022-12-18T22:25:43.199Z,79.10
2022-12-18T22:30:44.842Z,79.32
2022-12-18T22:35:46.506Z,79.03
2022-12-18T22:40:48.321Z,79.05
2022-12-18T22:45:49.920Z,79.32
2022-12-18T22:50:51.712Z,78.67
2022-12-18T22:56:01.065Z,78.59
2022-12-18T23:01:02.978Z,78.81
2022-12-18T23:06:05.702Z,78.15
2022-12-18T23:11:07.327Z,77.96
2022-12-18T23:16:13.969Z,78.03
2022-12-18T23:21:17.076Z,77.71
2022-12-18T23:26:20.871Z,78.06
2022-12-18T23:31:27.412Z,78.19
2022-12-18T23:36:29.530Z,78.18
2022-12-18T23:41:33.616Z,78.14
2022-12-18T23:46:36.117Z,77.75
2022-12-18T23:51:38.198Z,77.71
2022-12-18T23:56:41.169Z,78.37
